sensor_id;sensor_type;location;lat;lon;timestamp;P1;durP1;ratioP1;P2;durP2;ratioP2
12603;SDS011;6367;52.508;13.284;2023-10-09T00:00:16;5.00;;;2.57;;
12603;SDS011;6367;52.508;13.284;2023-10-09T00:03:00;4.03;;;3.03;;
12603;SDS011;6367;52.508;13.284;2023-10-09T00:05:28;2.93;;;2.60;;
12603;SDS011;6367;52.508;13.284;2023-10-09T00:08:04;2.37;;;1.93;;
12603;SDS011;6367;52.508;13.284;2023-10-09T00:10:30;2.17;;;1.97;;
12603;SDS011;6367;52.508;13.284;2023-10-09T00:13:10;3.60;;;2.60;;
12603;SDS011;6367;52.508;13.284;2023-10-09T00:15:36;2.67;;;2.20;;
12603;SDS011;6367;52.508;13.284;2023-10-09T00:18:02;3.03;;;2.13;;
12603;SDS011;6367;52.508;13.284;2023-10-09T00:20:37;3.17;;;2.20;;
12603;SDS011;6367;52.508;13.284;2023-10-09T00:23:04;2.63;;;2.43;;
12603;SDS011;6367;52.508;13.284;2023-10-09T00:25:42;4.17;;;2.50;;
12603;SDS011;6367;52.508;13.284;2023-10-09T00:28:34;3.03;;;1.97;;
12603;SDS011;6367;52.508;13.284;2023-10-09T00:31:00;3.57;;;2.20;;
12603;SDS011;6367;52.508;13.284;2023-10-09T00:33:32;2.63;;;2.43;;
12603;SDS011;6367;52.508;13.284;2023-10-09T00:36:05;4.20;;;2.30;;
12603;SDS011;6367;52.508;13.284;2023-10-09T00:38:42;2.10;;;1.90;;
12603;SDS011;6367;52.508;13.284;2023-10-09T00:41:17;2.87;;;2.20;;
12603;SDS011;6367;52.508;13.284;2023-10-09T00:43:49;3.30;;;2.43;;
12603;SDS011;6367;52.508;13.284;2023-10-09T00:46:16;3.77;;;2.00;;
12603;SDS011;6367;52.508;13.284;2023-10-09T00:48:46;2.60;;;2.33;;
12603;SDS011;6367;52.508;13.284;2023-10-09T00:51:13;2.70;;;2.03;;
12603;SDS011;6367;52.508;13.284;2023-10-09T00:53:50;2.87;;;2.33;;
12603;SDS011;6367;52.508;13.284;2023-10-09T00:56:19;3.10;;;2.67;;
12603;SDS011;6367;52.508;13.284;2023-10-09T00:58:51;3.00;;;2.50;;
12603;SDS011;6367;52.508;13.284;2023-10-09T01:01:25;3.27;;;2.13;;
12603;SDS011;6367;52.508;13.284;2023-10-09T01:03:59;2.80;;;2.20;;
12603;SDS011;6367;52.508;13.284;2023-10-09T01:06:35;3.27;;;2.60;;
12603;SDS011;6367;52.508;13.284;2023-10-09T01:09:09;4.70;;;2.70;;
12603;SDS011;6367;52.508;13.284;2023-10-09T01:11:36;3.17;;;2.50;;
12603;SDS011;6367;52.508;13.284;2023-10-09T01:14:12;2.90;;;2.37;;
12603;SDS011;6367;52.508;13.284;2023-10-09T01:16:39;3.63;;;2.57;;
12603;SDS011;6367;52.508;13.284;2023-10-09T01:19:08;3.00;;;2.30;;
12603;SDS011;6367;52.508;13.284;2023-10-09T01:22:00;2.70;;;2.43;;
12603;SDS011;6367;52.508;13.284;2023-10-09T01:24:39;4.50;;;3.10;;
12603;SDS011;6367;52.508;13.284;2023-10-09T01:27:05;3.53;;;2.80;;
12603;SDS011;6367;52.508;13.284;2023-10-09T01:29:39;5.93;;;2.20;;
12603;SDS011;6367;52.508;13.284;2023-10-09T01:32:06;3.53;;;2.83;;
12603;SDS011;6367;52.508;13.284;2023-10-09T01:34:35;3.53;;;2.07;;
12603;SDS011;6367;52.508;13.284;2023-10-09T01:37:03;3.70;;;2.57;;
12603;SDS011;6367;52.508;13.284;2023-10-09T01:39:59;4.23;;;2.67;;
12603;SDS011;6367;52.508;13.284;2023-10-09T01:42:45;2.50;;;2.00;;
12603;SDS011;6367;52.508;13.284;2023-10-09T01:45:11;5.30;;;2.67;;
12603;SDS011;6367;52.508;13.284;2023-10-09T01:47:51;3.83;;;2.63;;
12603;SDS011;6367;52.508;13.284;2023-10-09T01:50:18;3.67;;;2.40;;
12603;SDS011;6367;52.508;13.284;2023-10-09T01:52:55;3.00;;;2.70;;
12603;SDS011;6367;52.508;13.284;2023-10-09T01:55:21;4.73;;;2.67;;
12603;SDS011;6367;52.508;13.284;2023-10-09T01:58:06;2.47;;;2.27;;
12603;SDS011;6367;52.508;13.284;2023-10-09T02:00:48;3.47;;;2.60;;
12603;SDS011;6367;52.508;13.284;2023-10-09T02:03:20;3.70;;;2.73;;
12603;SDS011;6367;52.508;13.284;2023-10-09T02:05:51;3.57;;;2.77;;
12603;SDS011;6367;52.508;13.284;2023-10-09T02:08:42;5.40;;;3.40;;
12603;SDS011;6367;52.508;13.284;2023-10-09T02:11:14;3.33;;;2.77;;
12603;SDS011;6367;52.508;13.284;2023-10-09T02:13:49;5.07;;;2.97;;
12603;SDS011;6367;52.508;13.284;2023-10-09T02:16:26;3.03;;;2.70;;
12603;SDS011;6367;52.508;13.284;2023-10-09T02:19:06;2.67;;;2.47;;
12603;SDS011;6367;52.508;13.284;2023-10-09T02:21:52;4.30;;;3.07;;
12603;SDS011;6367;52.508;13.284;2023-10-09T02:24:18;3.20;;;2.73;;
12603;SDS011;6367;52.508;13.284;2023-10-09T02:27:04;3.07;;;2.77;;
12603;SDS011;6367;52.508;13.284;2023-10-09T02:29:32;3.57;;;3.03;;
12603;SDS011;6367;52.508;13.284;2023-10-09T02:32:00;3.83;;;2.90;;
12603;SDS011;6367;52.508;13.284;2023-10-09T02:34:38;4.00;;;2.90;;
12603;SDS011;6367;52.508;13.284;2023-10-09T02:37:04;3.07;;;2.77;;
12603;SDS011;6367;52.508;13.284;2023-10-09T02:39:31;4.50;;;3.20;;
12603;SDS011;6367;52.508;13.284;2023-10-09T02:42:09;4.30;;;3.23;;
12603;SDS011;6367;52.508;13.284;2023-10-09T02:44:37;5.90;;;3.50;;
12603;SDS011;6367;52.508;13.284;2023-10-09T02:47:11;4.77;;;3.40;;
12603;SDS011;6367;52.508;13.284;2023-10-09T02:49:45;4.87;;;2.97;;
12603;SDS011;6367;52.508;13.284;2023-10-09T02:52:13;3.50;;;2.87;;
12603;SDS011;6367;52.508;13.284;2023-10-09T02:54:43;5.33;;;3.33;;
12603;SDS011;6367;52.508;13.284;2023-10-09T02:57:12;4.80;;;3.73;;
12603;SDS011;6367;52.508;13.284;2023-10-09T02:59:53;4.60;;;4.10;;
12603;SDS011;6367;52.508;13.284;2023-10-09T03:02:18;3.03;;;2.70;;
12603;SDS011;6367;52.508;13.284;2023-10-09T03:04:44;4.10;;;3.50;;
12603;SDS011;6367;52.508;13.284;2023-10-09T03:07:10;5.77;;;3.70;;
12603;SDS011;6367;52.508;13.284;2023-10-09T03:09:38;4.30;;;3.40;;
12603;SDS011;6367;52.508;13.284;2023-10-09T03:12:05;3.77;;;3.00;;
12603;SDS011;6367;52.508;13.284;2023-10-09T03:14:35;3.97;;;3.30;;
12603;SDS011;6367;52.508;13.284;2023-10-09T03:17:03;3.87;;;3.57;;
12603;SDS011;6367;52.508;13.284;2023-10-09T03:19:30;4.37;;;4.07;;
12603;SDS011;6367;52.508;13.284;2023-10-09T03:22:02;5.70;;;4.37;;
12603;SDS011;6367;52.508;13.284;2023-10-09T03:24:28;4.40;;;3.40;;
12603;SDS011;6367;52.508;13.284;2023-10-09T03:26:56;3.73;;;3.23;;
12603;SDS011;6367;52.508;13.284;2023-10-09T03:29:22;4.33;;;3.93;;
12603;SDS011;6367;52.508;13.284;2023-10-09T03:31:48;5.40;;;3.63;;
12603;SDS011;6367;52.508;13.284;2023-10-09T03:34:16;5.30;;;3.47;;
12603;SDS011;6367;52.508;13.284;2023-10-09T03:36:43;6.30;;;3.73;;
12603;SDS011;6367;52.508;13.284;2023-10-09T03:39:09;4.23;;;3.77;;
12603;SDS011;6367;52.508;13.284;2023-10-09T03:41:54;6.77;;;4.20;;
12603;SDS011;6367;52.508;13.284;2023-10-09T03:44:23;4.60;;;3.90;;
12603;SDS011;6367;52.508;13.284;2023-10-09T03:46:54;4.90;;;3.53;;
12603;SDS011;6367;52.508;13.284;2023-10-09T03:49:20;4.17;;;3.77;;
12603;SDS011;6367;52.508;13.284;2023-10-09T03:51:48;5.23;;;3.73;;
12603;SDS011;6367;52.508;13.284;2023-10-09T03:54:14;5.93;;;3.03;;
12603;SDS011;6367;52.508;13.284;2023-10-09T03:56:40;4.73;;;3.30;;
12603;SDS011;6367;52.508;13.284;2023-10-09T03:59:06;5.57;;;3.27;;
12603;SDS011;6367;52.508;13.284;2023-10-09T04:01:35;3.73;;;3.43;;
12603;SDS011;6367;52.508;13.284;2023-10-09T04:04:05;3.87;;;3.27;;
12603;SDS011;6367;52.508;13.284;2023-10-09T04:06:32;4.17;;;3.67;;
12603;SDS011;6367;52.508;13.284;2023-10-09T04:11:43;4.57;;;3.07;;
12603;SDS011;6367;52.508;13.284;2023-10-09T04:14:11;3.93;;;3.40;;
12603;SDS011;6367;52.508;13.284;2023-10-09T04:16:47;5.43;;;2.53;;
12603;SDS011;6367;52.508;13.284;2023-10-09T04:19:30;5.97;;;3.80;;
12603;SDS011;6367;52.508;13.284;2023-10-09T04:22:03;3.80;;;3.17;;
12603;SDS011;6367;52.508;13.284;2023-10-09T04:24:33;4.93;;;2.70;;
12603;SDS011;6367;52.508;13.284;2023-10-09T04:27:06;4.63;;;3.23;;
12603;SDS011;6367;52.508;13.284;2023-10-09T04:29:33;3.33;;;2.50;;
12603;SDS011;6367;52.508;13.284;2023-10-09T04:32:11;2.87;;;2.57;;
12603;SDS011;6367;52.508;13.284;2023-10-09T04:34:41;3.10;;;2.77;;
12603;SDS011;6367;52.508;13.284;2023-10-09T04:37:22;3.13;;;2.83;;
12603;SDS011;6367;52.508;13.284;2023-10-09T04:40:18;2.87;;;2.67;;
12603;SDS011;6367;52.508;13.284;2023-10-09T04:43:09;4.03;;;2.97;;
12603;SDS011;6367;52.508;13.284;2023-10-09T04:45:45;3.90;;;3.00;;
12603;SDS011;6367;52.508;13.284;2023-10-09T04:48:31;4.53;;;3.50;;
12603;SDS011;6367;52.508;13.284;2023-10-09T04:51:06;3.40;;;3.10;;
12603;SDS011;6367;52.508;13.284;2023-10-09T04:53:47;3.53;;;2.93;;
12603;SDS011;6367;52.508;13.284;2023-10-09T04:56:25;3.50;;;2.80;;
12603;SDS011;6367;52.508;13.284;2023-10-09T04:58:56;5.33;;;3.13;;
12603;SDS011;6367;52.508;13.284;2023-10-09T05:01:28;6.93;;;3.40;;
12603;SDS011;6367;52.508;13.284;2023-10-09T05:04:01;2.83;;;2.53;;
12603;SDS011;6367;52.508;13.284;2023-10-09T05:06:29;3.83;;;3.00;;
12603;SDS011;6367;52.508;13.284;2023-10-09T05:09:07;3.73;;;3.30;;
12603;SDS011;6367;52.508;13.284;2023-10-09T05:11:34;4.90;;;3.13;;
12603;SDS011;6367;52.508;13.284;2023-10-09T05:14:20;3.57;;;2.63;;
12603;SDS011;6367;52.508;13.284;2023-10-09T05:16:52;3.03;;;2.43;;
12603;SDS011;6367;52.508;13.284;2023-10-09T05:19:20;3.57;;;2.70;;
12603;SDS011;6367;52.508;13.284;2023-10-09T05:22:08;2.97;;;2.43;;
12603;SDS011;6367;52.508;13.284;2023-10-09T05:24:42;3.73;;;2.27;;
12603;SDS011;6367;52.508;13.284;2023-10-09T05:27:12;6.03;;;2.70;;
12603;SDS011;6367;52.508;13.284;2023-10-09T05:29:42;7.00;;;3.13;;
12603;SDS011;6367;52.508;13.284;2023-10-09T05:32:24;4.83;;;2.23;;
12603;SDS011;6367;52.508;13.284;2023-10-09T05:35:00;4.87;;;2.70;;
12603;SDS011;6367;52.508;13.284;2023-10-09T05:37:30;4.63;;;2.60;;
12603;SDS011;6367;52.508;13.284;2023-10-09T05:40:00;3.50;;;2.63;;
12603;SDS011;6367;52.508;13.284;2023-10-09T05:42:41;2.90;;;2.60;;
12603;SDS011;6367;52.508;13.284;2023-10-09T05:45:14;3.13;;;2.60;;
12603;SDS011;6367;52.508;13.284;2023-10-09T05:47:59;4.23;;;2.57;;
12603;SDS011;6367;52.508;13.284;2023-10-09T05:50:31;4.23;;;2.90;;
12603;SDS011;6367;52.508;13.284;2023-10-09T05:53:01;3.47;;;2.93;;
12603;SDS011;6367;52.508;13.284;2023-10-09T05:55:27;3.93;;;3.03;;
12603;SDS011;6367;52.508;13.284;2023-10-09T05:58:33;4.17;;;2.50;;
12603;SDS011;6367;52.508;13.284;2023-10-09T06:01:28;3.00;;;2.40;;
12603;SDS011;6367;52.508;13.284;2023-10-09T06:04:25;3.70;;;3.13;;
12603;SDS011;6367;52.508;13.284;2023-10-09T06:07:10;2.90;;;2.43;;
12603;SDS011;6367;52.508;13.284;2023-10-09T06:09:39;2.57;;;2.23;;
12603;SDS011;6367;52.508;13.284;2023-10-09T06:12:24;2.73;;;2.30;;
12603;SDS011;6367;52.508;13.284;2023-10-09T06:14:49;3.00;;;2.53;;
12603;SDS011;6367;52.508;13.284;2023-10-09T06:17:22;3.07;;;2.57;;
12603;SDS011;6367;52.508;13.284;2023-10-09T06:19:48;2.70;;;2.50;;
12603;SDS011;6367;52.508;13.284;2023-10-09T06:22:14;3.37;;;3.00;;
12603;SDS011;6367;52.508;13.284;2023-10-09T06:24:49;4.87;;;3.10;;
12603;SDS011;6367;52.508;13.284;2023-10-09T06:27:18;5.90;;;3.10;;
12603;SDS011;6367;52.508;13.284;2023-10-09T06:30:05;5.53;;;3.60;;
12603;SDS011;6367;52.508;13.284;2023-10-09T06:32:43;3.10;;;2.80;;
12603;SDS011;6367;52.508;13.284;2023-10-09T06:35:34;3.30;;;2.77;;
12603;SDS011;6367;52.508;13.284;2023-10-09T06:38:01;3.40;;;3.10;;
12603;SDS011;6367;52.508;13.284;2023-10-09T06:40:27;3.27;;;2.80;;
12603;SDS011;6367;52.508;13.284;2023-10-09T06:43:04;3.87;;;3.10;;
12603;SDS011;6367;52.508;13.284;2023-10-09T06:45:42;4.50;;;3.07;;
12603;SDS011;6367;52.508;13.284;2023-10-09T06:48:11;6.57;;;3.23;;
12603;SDS011;6367;52.508;13.284;2023-10-09T06:50:57;4.90;;;2.60;;
12603;SDS011;6367;52.508;13.284;2023-10-09T06:53:37;5.10;;;3.47;;
12603;SDS011;6367;52.508;13.284;2023-10-09T06:56:21;3.87;;;3.27;;
12603;SDS011;6367;52.508;13.284;2023-10-09T06:58:56;5.03;;;3.30;;
12603;SDS011;6367;52.508;13.284;2023-10-09T07:01:23;5.10;;;4.03;;
12603;SDS011;6367;52.508;13.284;2023-10-09T07:03:52;3.70;;;3.10;;
12603;SDS011;6367;52.508;13.284;2023-10-09T07:06:21;5.83;;;4.10;;
12603;SDS011;6367;52.508;13.284;2023-10-09T07:08:55;3.87;;;3.17;;
12603;SDS011;6367;52.508;13.284;2023-10-09T07:11:34;3.93;;;3.53;;
12603;SDS011;6367;52.508;13.284;2023-10-09T07:16:32;4.20;;;3.47;;
12603;SDS011;6367;52.508;13.284;2023-10-09T07:19:04;4.40;;;4.00;;
12603;SDS011;6367;52.508;13.284;2023-10-09T07:21:50;4.20;;;3.30;;
12603;SDS011;6367;52.508;13.284;2023-10-09T07:24:19;3.53;;;3.13;;
12603;SDS011;6367;52.508;13.284;2023-10-09T07:26:49;5.03;;;3.50;;
12603;SDS011;6367;52.508;13.284;2023-10-09T07:29:18;3.43;;;2.70;;
12603;SDS011;6367;52.508;13.284;2023-10-09T07:31:51;4.30;;;3.17;;
12603;SDS011;6367;52.508;13.284;2023-10-09T07:34:23;3.77;;;3.13;;
12603;SDS011;6367;52.508;13.284;2023-10-09T07:37:07;5.80;;;3.90;;
12603;SDS011;6367;52.508;13.284;2023-10-09T07:39:34;4.50;;;4.10;;
12603;SDS011;6367;52.508;13.284;2023-10-09T07:42:01;4.10;;;2.90;;
12603;SDS011;6367;52.508;13.284;2023-10-09T07:44:51;3.40;;;3.10;;
12603;SDS011;6367;52.508;13.284;2023-10-09T07:47:21;6.27;;;3.40;;
12603;SDS011;6367;52.508;13.284;2023-10-09T07:50:11;4.80;;;3.93;;
12603;SDS011;6367;52.508;13.284;2023-10-09T07:52:36;6.07;;;4.50;;
12603;SDS011;6367;52.508;13.284;2023-10-09T07:55:08;5.33;;;4.67;;
12603;SDS011;6367;52.508;13.284;2023-10-09T07:57:51;5.53;;;4.30;;
12603;SDS011;6367;52.508;13.284;2023-10-09T08:00:17;5.10;;;4.57;;
12603;SDS011;6367;52.508;13.284;2023-10-09T08:03:02;5.07;;;4.57;;
12603;SDS011;6367;52.508;13.284;2023-10-09T08:05:28;5.00;;;3.87;;
12603;SDS011;6367;52.508;13.284;2023-10-09T08:07:59;8.70;;;4.70;;
12603;SDS011;6367;52.508;13.284;2023-10-09T08:11:04;36.13;;;30.00;;
12603;SDS011;6367;52.508;13.284;2023-10-09T08:13:51;19.13;;;15.23;;
12603;SDS011;6367;52.508;13.284;2023-10-09T08:16:16;36.33;;;31.90;;
12603;SDS011;6367;52.508;13.284;2023-10-09T08:18:47;10.30;;;8.57;;
12603;SDS011;6367;52.508;13.284;2023-10-09T08:21:16;5.50;;;5.00;;
12603;SDS011;6367;52.508;13.284;2023-10-09T08:23:42;5.77;;;4.30;;
12603;SDS011;6367;52.508;13.284;2023-10-09T08:26:14;6.30;;;5.70;;
12603;SDS011;6367;52.508;13.284;2023-10-09T08:28:53;5.80;;;4.80;;
12603;SDS011;6367;52.508;13.284;2023-10-09T08:31:19;6.30;;;5.20;;
12603;SDS011;6367;52.508;13.284;2023-10-09T08:34:10;4.80;;;4.27;;
12603;SDS011;6367;52.508;13.284;2023-10-09T08:36:48;4.90;;;4.47;;
12603;SDS011;6367;52.508;13.284;2023-10-09T08:39:17;4.63;;;3.63;;
12603;SDS011;6367;52.508;13.284;2023-10-09T08:41:55;5.53;;;3.93;;
12603;SDS011;6367;52.508;13.284;2023-10-09T08:44:27;3.93;;;3.63;;
12603;SDS011;6367;52.508;13.284;2023-10-09T08:46:56;6.00;;;4.43;;
12603;SDS011;6367;52.508;13.284;2023-10-09T08:49:23;5.43;;;3.60;;
12603;SDS011;6367;52.508;13.284;2023-10-09T08:51:50;4.63;;;4.10;;
12603;SDS011;6367;52.508;13.284;2023-10-09T08:54:17;4.80;;;3.93;;
12603;SDS011;6367;52.508;13.284;2023-10-09T08:56:45;5.57;;;3.50;;
12603;SDS011;6367;52.508;13.284;2023-10-09T08:59:19;5.67;;;4.17;;
12603;SDS011;6367;52.508;13.284;2023-10-09T09:01:49;4.30;;;3.50;;
12603;SDS011;6367;52.508;13.284;2023-10-09T09:04:36;4.10;;;3.53;;
12603;SDS011;6367;52.508;13.284;2023-10-09T09:07:06;4.70;;;3.30;;
12603;SDS011;6367;52.508;13.284;2023-10-09T09:09:58;5.90;;;4.07;;
12603;SDS011;6367;52.508;13.284;2023-10-09T09:12:45;5.77;;;3.80;;
12603;SDS011;6367;52.508;13.284;2023-10-09T09:15:15;5.30;;;3.23;;
12603;SDS011;6367;52.508;13.284;2023-10-09T09:17:46;5.13;;;3.67;;
12603;SDS011;6367;52.508;13.284;2023-10-09T09:20:21;6.73;;;4.10;;
12603;SDS011;6367;52.508;13.284;2023-10-09T09:22:53;4.20;;;3.50;;
12603;SDS011;6367;52.508;13.284;2023-10-09T09:25:23;4.33;;;3.93;;
12603;SDS011;6367;52.508;13.284;2023-10-09T09:27:50;5.60;;;4.00;;
12603;SDS011;6367;52.508;13.284;2023-10-09T09:30:23;6.10;;;3.70;;
12603;SDS011;6367;52.508;13.284;2023-10-09T09:32:51;7.40;;;3.40;;
12603;SDS011;6367;52.508;13.284;2023-10-09T09:35:35;7.23;;;4.30;;
12603;SDS011;6367;52.508;13.284;2023-10-09T09:38:01;6.40;;;3.83;;
12603;SDS011;6367;52.508;13.284;2023-10-09T09:40:31;6.23;;;4.13;;
12603;SDS011;6367;52.508;13.284;2023-10-09T09:43:06;3.83;;;3.53;;
12603;SDS011;6367;52.508;13.284;2023-10-09T09:45:46;4.73;;;3.80;;
12603;SDS011;6367;52.508;13.284;2023-10-09T09:48:14;5.07;;;3.70;;
12603;SDS011;6367;52.508;13.284;2023-10-09T09:50:42;4.90;;;4.10;;
12603;SDS011;6367;52.508;13.284;2023-10-09T09:53:19;4.80;;;4.40;;
12603;SDS011;6367;52.508;13.284;2023-10-09T09:55:51;8.40;;;5.10;;
12603;SDS011;6367;52.508;13.284;2023-10-09T09:58:22;6.63;;;4.77;;
12603;SDS011;6367;52.508;13.284;2023-10-09T10:01:07;8.70;;;5.87;;
12603;SDS011;6367;52.508;13.284;2023-10-09T10:03:49;7.10;;;4.60;;
12603;SDS011;6367;52.508;13.284;2023-10-09T10:06:21;5.30;;;4.73;;
12603;SDS011;6367;52.508;13.284;2023-10-09T10:08:51;5.97;;;5.17;;
12603;SDS011;6367;52.508;13.284;2023-10-09T10:14:17;14.17;;;10.27;;
12603;SDS011;6367;52.508;13.284;2023-10-09T10:17:00;12.37;;;9.13;;
12603;SDS011;6367;52.508;13.284;2023-10-09T10:20:05;8.27;;;5.67;;
12603;SDS011;6367;52.508;13.284;2023-10-09T10:22:44;6.97;;;4.27;;
12603;SDS011;6367;52.508;13.284;2023-10-09T10:28:15;5.90;;;4.63;;
12603;SDS011;6367;52.508;13.284;2023-10-09T10:30:56;6.50;;;5.50;;
12603;SDS011;6367;52.508;13.284;2023-10-09T10:33:26;6.40;;;5.13;;
12603;SDS011;6367;52.508;13.284;2023-10-09T10:36:12;5.10;;;4.60;;
12603;SDS011;6367;52.508;13.284;2023-10-09T10:38:47;6.30;;;5.47;;
12603;SDS011;6367;52.508;13.284;2023-10-09T10:41:33;5.73;;;5.17;;
12603;SDS011;6367;52.508;13.284;2023-10-09T10:44:04;8.00;;;5.70;;
12603;SDS011;6367;52.508;13.284;2023-10-09T10:47:02;7.33;;;6.20;;
12603;SDS011;6367;52.508;13.284;2023-10-09T10:49:53;5.87;;;5.37;;
12603;SDS011;6367;52.508;13.284;2023-10-09T10:52:37;5.77;;;5.20;;
12603;SDS011;6367;52.508;13.284;2023-10-09T10:55:13;8.90;;;6.97;;
12603;SDS011;6367;52.508;13.284;2023-10-09T10:58:02;5.93;;;5.33;;
12603;SDS011;6367;52.508;13.284;2023-10-09T11:00:38;6.80;;;6.10;;
12603;SDS011;6367;52.508;13.284;2023-10-09T11:03:22;6.27;;;5.77;;
12603;SDS011;6367;52.508;13.284;2023-10-09T11:06:01;6.00;;;5.50;;
12603;SDS011;6367;52.508;13.284;2023-10-09T11:08:46;6.67;;;6.00;;
12603;SDS011;6367;52.508;13.284;2023-10-09T11:11:19;5.93;;;5.37;;
12603;SDS011;6367;52.508;13.284;2023-10-09T11:13:45;6.83;;;6.23;;
12603;SDS011;6367;52.508;13.284;2023-10-09T11:16:23;6.67;;;6.07;;
12603;SDS011;6367;52.508;13.284;2023-10-09T11:19:12;11.63;;;6.50;;
12603;SDS011;6367;52.508;13.284;2023-10-09T11:21:51;6.57;;;5.80;;
12603;SDS011;6367;52.508;13.284;2023-10-09T11:24:39;7.13;;;6.43;;
12603;SDS011;6367;52.508;13.284;2023-10-09T11:27:08;6.47;;;5.87;;
12603;SDS011;6367;52.508;13.284;2023-10-09T11:29:47;7.17;;;6.50;;
12603;SDS011;6367;52.508;13.284;2023-10-09T11:32:19;6.70;;;6.10;;
12603;SDS011;6367;52.508;13.284;2023-10-09T11:34:49;7.43;;;6.73;;
12603;SDS011;6367;52.508;13.284;2023-10-09T11:37:20;7.07;;;6.47;;
12603;SDS011;6367;52.508;13.284;2023-10-09T11:39:56;7.40;;;6.70;;
12603;SDS011;6367;52.508;13.284;2023-10-09T11:42:23;6.50;;;6.00;;
12603;SDS011;6367;52.508;13.284;2023-10-09T11:45:00;7.33;;;5.60;;
12603;SDS011;6367;52.508;13.284;2023-10-09T11:47:47;6.90;;;6.30;;
12603;SDS011;6367;52.508;13.284;2023-10-09T11:53:14;9.37;;;7.60;;
12603;SDS011;6367;52.508;13.284;2023-10-09T11:55:58;7.90;;;7.10;;
12603;SDS011;6367;52.508;13.284;2023-10-09T11:58:24;7.77;;;7.00;;
12603;SDS011;6367;52.508;13.284;2023-10-09T12:00:59;8.07;;;7.27;;
12603;SDS011;6367;52.508;13.284;2023-10-09T12:03:41;7.33;;;6.63;;
12603;SDS011;6367;52.508;13.284;2023-10-09T12:06:08;8.07;;;6.43;;
12603;SDS011;6367;52.508;13.284;2023-10-09T12:08:37;7.90;;;7.10;;
12603;SDS011;6367;52.508;13.284;2023-10-09T12:11:05;7.03;;;6.43;;
12603;SDS011;6367;52.508;13.284;2023-10-09T12:13:34;8.47;;;7.47;;
12603;SDS011;6367;52.508;13.284;2023-10-09T12:16:03;7.70;;;7.00;;
12603;SDS011;6367;52.508;13.284;2023-10-09T12:18:33;8.70;;;7.80;;
12603;SDS011;6367;52.508;13.284;2023-10-09T12:20:59;8.60;;;7.70;;
12603;SDS011;6367;52.508;13.284;2023-10-09T12:23:29;7.33;;;6.67;;
12603;SDS011;6367;52.508;13.284;2023-10-09T12:26:00;6.33;;;5.83;;
12603;SDS011;6367;52.508;13.284;2023-10-09T12:28:27;8.70;;;6.03;;
12603;SDS011;6367;52.508;13.284;2023-10-09T12:30:53;7.37;;;6.70;;
12603;SDS011;6367;52.508;13.284;2023-10-09T12:33:20;7.77;;;7.03;;
12603;SDS011;6367;52.508;13.284;2023-10-09T12:35:55;7.47;;;6.80;;
12603;SDS011;6367;52.508;13.284;2023-10-09T12:38:30;7.43;;;6.50;;
12603;SDS011;6367;52.508;13.284;2023-10-09T12:43:33;6.43;;;5.83;;
12603;SDS011;6367;52.508;13.284;2023-10-09T12:46:06;7.50;;;6.80;;
12603;SDS011;6367;52.508;13.284;2023-10-09T12:48:33;7.60;;;6.90;;
12603;SDS011;6367;52.508;13.284;2023-10-09T12:50:59;8.33;;;7.63;;
12603;SDS011;6367;52.508;13.284;2023-10-09T12:53:31;10.13;;;8.20;;
12603;SDS011;6367;52.508;13.284;2023-10-09T12:55:59;8.20;;;7.20;;
12603;SDS011;6367;52.508;13.284;2023-10-09T12:58:25;7.33;;;6.60;;
12603;SDS011;6367;52.508;13.284;2023-10-09T13:00:52;8.10;;;7.30;;
12603;SDS011;6367;52.508;13.284;2023-10-09T13:03:17;8.30;;;7.50;;
12603;SDS011;6367;52.508;13.284;2023-10-09T13:05:50;8.33;;;7.63;;
12603;SDS011;6367;52.508;13.284;2023-10-09T13:10:56;9.50;;;8.50;;
12603;SDS011;6367;52.508;13.284;2023-10-09T13:13:28;9.27;;;8.27;;
12603;SDS011;6367;52.508;13.284;2023-10-09T13:18:49;9.53;;;7.83;;
12603;SDS011;6367;52.508;13.284;2023-10-09T13:21:27;9.23;;;8.53;;
12603;SDS011;6367;52.508;13.284;2023-10-09T13:23:59;8.90;;;8.10;;
12603;SDS011;6367;52.508;13.284;2023-10-09T13:26:26;10.33;;;9.33;;
12603;SDS011;6367;52.508;13.284;2023-10-09T13:28:56;9.40;;;8.60;;
12603;SDS011;6367;52.508;13.284;2023-10-09T13:31:23;10.67;;;9.83;;
12603;SDS011;6367;52.508;13.284;2023-10-09T13:33:51;9.70;;;8.73;;
12603;SDS011;6367;52.508;13.284;2023-10-09T13:36:20;9.30;;;8.43;;
12603;SDS011;6367;52.508;13.284;2023-10-09T13:39:02;9.23;;;8.40;;
12603;SDS011;6367;52.508;13.284;2023-10-09T13:41:47;8.77;;;7.90;;
12603;SDS011;6367;52.508;13.284;2023-10-09T13:44:15;10.63;;;8.33;;
12603;SDS011;6367;52.508;13.284;2023-10-09T13:46:41;17.87;;;12.53;;
12603;SDS011;6367;52.508;13.284;2023-10-09T13:49:07;15.20;;;12.13;;
12603;SDS011;6367;52.508;13.284;2023-10-09T13:51:37;10.47;;;9.47;;
12603;SDS011;6367;52.508;13.284;2023-10-09T13:54:09;10.70;;;9.60;;
12603;SDS011;6367;52.508;13.284;2023-10-09T13:57:04;9.53;;;8.73;;
12603;SDS011;6367;52.508;13.284;2023-10-09T13:59:31;10.57;;;9.70;;
12603;SDS011;6367;52.508;13.284;2023-10-09T14:02:00;9.70;;;8.80;;
12603;SDS011;6367;52.508;13.284;2023-10-09T14:04:27;10.00;;;8.80;;
12603;SDS011;6367;52.508;13.284;2023-10-09T14:06:53;9.93;;;8.70;;
12603;SDS011;6367;52.508;13.284;2023-10-09T14:09:22;9.47;;;8.53;;
12603;SDS011;6367;52.508;13.284;2023-10-09T14:12:03;9.33;;;8.43;;
12603;SDS011;6367;52.508;13.284;2023-10-09T14:17:06;10.27;;;8.30;;
12603;SDS011;6367;52.508;13.284;2023-10-09T14:22:06;8.37;;;7.67;;
12603;SDS011;6367;52.508;13.284;2023-10-09T14:24:32;7.67;;;6.97;;
12603;SDS011;6367;52.508;13.284;2023-10-09T14:27:00;7.70;;;6.90;;
12603;SDS011;6367;52.508;13.284;2023-10-09T14:29:29;7.07;;;6.47;;
12603;SDS011;6367;52.508;13.284;2023-10-09T14:31:56;8.57;;;7.83;;
12603;SDS011;6367;52.508;13.284;2023-10-09T14:34:25;10.07;;;9.17;;
12603;SDS011;6367;52.508;13.284;2023-10-09T14:36:57;12.73;;;11.50;;
12603;SDS011;6367;52.508;13.284;2023-10-09T14:39:25;12.50;;;11.30;;
12603;SDS011;6367;52.508;13.284;2023-10-09T14:41:52;11.87;;;10.57;;
12603;SDS011;6367;52.508;13.284;2023-10-09T14:44:20;11.80;;;10.73;;
12603;SDS011;6367;52.508;13.284;2023-10-09T14:46:46;10.50;;;9.60;;
12603;SDS011;6367;52.508;13.284;2023-10-09T14:49:14;12.20;;;11.00;;
12603;SDS011;6367;52.508;13.284;2023-10-09T14:51:40;12.13;;;11.03;;
12603;SDS011;6367;52.508;13.284;2023-10-09T14:54:05;10.97;;;9.93;;
12603;SDS011;6367;52.508;13.284;2023-10-09T14:56:33;12.03;;;10.53;;
12603;SDS011;6367;52.508;13.284;2023-10-09T14:59:02;12.10;;;11.07;;
12603;SDS011;6367;52.508;13.284;2023-10-09T15:01:30;11.00;;;10.00;;
12603;SDS011;6367;52.508;13.284;2023-10-09T15:03:57;12.20;;;11.03;;
12603;SDS011;6367;52.508;13.284;2023-10-09T15:06:26;12.03;;;10.93;;
12603;SDS011;6367;52.508;13.284;2023-10-09T15:08:53;11.27;;;10.30;;
12603;SDS011;6367;52.508;13.284;2023-10-09T15:11:27;10.93;;;9.90;;
12603;SDS011;6367;52.508;13.284;2023-10-09T15:13:53;11.00;;;10.00;;
12603;SDS011;6367;52.508;13.284;2023-10-09T15:16:22;11.03;;;9.97;;
12603;SDS011;6367;52.508;13.284;2023-10-09T15:18:51;11.60;;;10.50;;
12603;SDS011;6367;52.508;13.284;2023-10-09T15:21:19;10.67;;;9.70;;
12603;SDS011;6367;52.508;13.284;2023-10-09T15:23:51;10.13;;;9.10;;
12603;SDS011;6367;52.508;13.284;2023-10-09T15:26:19;10.83;;;9.83;;
12603;SDS011;6367;52.508;13.284;2023-10-09T15:28:46;10.17;;;9.17;;
12603;SDS011;6367;52.508;13.284;2023-10-09T15:31:11;10.73;;;9.33;;
12603;SDS011;6367;52.508;13.284;2023-10-09T15:33:40;11.53;;;10.40;;
12603;SDS011;6367;52.508;13.284;2023-10-09T15:36:10;10.77;;;9.73;;
12603;SDS011;6367;52.508;13.284;2023-10-09T15:38:41;9.73;;;8.87;;
12603;SDS011;6367;52.508;13.284;2023-10-09T15:41:07;11.17;;;10.17;;
12603;SDS011;6367;52.508;13.284;2023-10-09T15:43:34;10.50;;;9.50;;
12603;SDS011;6367;52.508;13.284;2023-10-09T15:46:00;10.53;;;9.50;;
12603;SDS011;6367;52.508;13.284;2023-10-09T15:48:27;14.13;;;10.13;;